createdAt,value
2022-11-19T00:00:13.379Z,92714.44
2022-11-19T00:01:15.023Z,92734.00
2022-11-19T00:02:11.729Z,92741.25
2022-11-19T00:03:08.432Z,92741.59
2022-11-19T00:04:07.736Z,92715.16
2022-11-19T00:05:04.675Z,92740.84
2022-11-19T00:06:19.867Z,92735.91
2022-11-19T00:07:16.608Z,92735.19
2022-11-19T00:08:18.799Z,92731.34
2022-11-19T00:09:15.525Z,92741.59
2022-11-19T00:10:12.127Z,92704.03
2022-11-19T00:11:14.583Z,92731.66
2022-11-19T00:12:29.601Z,92735.09
2022-11-19T00:13:26.208Z,92733.19
2022-11-19T00:14:23.802Z,92736.19
2022-11-19T00:15:20.853Z,92731.56
2022-11-19T00:16:17.473Z,92720.34
2022-11-19T00:17:14.109Z,92736.44
2022-11-19T00:18:10.690Z,92722.25
2022-11-19T00:19:07.774Z,92736.50
2022-11-19T00:20:04.664Z,92736.72
2022-11-19T00:21:19.548Z,92699.00
2022-11-19T00:22:16.101Z,92739.84
2022-11-19T00:23:12.703Z,92746.19
2022-11-19T00:24:10.493Z,92748.06
2022-11-19T00:25:07.820Z,92746.44
2022-11-19T00:26:14.979Z,92751.03
2022-11-19T00:27:11.663Z,92749.13
2022-11-19T00:28:08.830Z,92728.00
2022-11-19T00:29:05.448Z,92754.75
2022-11-19T00:30:05.539Z,92752.91
2022-11-19T00:31:10.844Z,92753.28
2022-11-19T00:32:07.518Z,92754.41
2022-11-19T00:33:04.116Z,92752.09
2022-11-19T00:34:00.683Z,92745.91
2022-11-19T00:34:57.512Z,92752.00
2022-11-19T00:35:56.582Z,92706.06
2022-11-19T00:36:53.200Z,92742.53
2022-11-19T00:37:49.948Z,92737.97
2022-11-19T00:38:46.588Z,92737.16
2022-11-19T00:39:43.187Z,92739.81
2022-11-19T00:40:39.791Z,92746.81
2022-11-19T00:41:36.327Z,92748.00
2022-11-19T00:42:33.030Z,92754.59
2022-11-19T00:43:48.376Z,92756.44
2022-11-19T00:44:45.290Z,92760.94
2022-11-19T00:45:44.554Z,92761.41
2022-11-19T00:46:41.222Z,92761.00
2022-11-19T00:47:37.797Z,92759.72
2022-11-19T00:48:34.470Z,92760.41
2022-11-19T00:49:31.057Z,92757.25
2022-11-19T00:50:27.675Z,92758.38
2022-11-19T00:51:26.832Z,92756.03
2022-11-19T00:52:23.470Z,92712.69
2022-11-19T00:53:20.042Z,92761.66
2022-11-19T00:54:16.749Z,92754.47
2022-11-19T00:55:13.348Z,92762.53
2022-11-19T00:56:12.363Z,92762.16
2022-11-19T00:57:09.007Z,92762.69
2022-11-19T00:58:05.583Z,92715.13
2022-11-19T00:59:02.231Z,92747.28
2022-11-19T00:59:58.880Z,92768.34
2022-11-19T01:00:55.927Z,92766.88
2022-11-19T01:01:52.658Z,92765.38
2022-11-19T01:02:49.241Z,92774.97
2022-11-19T01:03:46.100Z,92770.59
2022-11-19T01:04:42.687Z,92743.75
2022-11-19T01:05:39.291Z,92761.34
2022-11-19T01:06:35.868Z,92770.91
2022-11-19T01:07:32.501Z,92764.31
2022-11-19T01:08:29.443Z,92770.81
2022-11-19T01:09:27.243Z,92739.44
2022-11-19T01:10:23.870Z,92771.03
2022-11-19T01:11:23.586Z,92761.78
2022-11-19T01:12:20.138Z,92777.81
2022-11-19T01:13:35.095Z,92778.16
2022-11-19T01:14:31.667Z,92777.50
2022-11-19T01:15:28.268Z,92748.66
2022-11-19T01:16:36.760Z,92778.00
2022-11-19T01:17:33.342Z,92735.09
2022-11-19T01:18:30.376Z,92770.94
2022-11-19T01:19:26.992Z,92775.41
2022-11-19T01:20:23.719Z,92773.00
2022-11-19T01:21:22.422Z,92747.28
2022-11-19T01:22:19.125Z,92765.34
2022-11-19T01:23:15.751Z,92772.25
2022-11-19T01:24:12.339Z,92774.91
2022-11-19T01:25:09.856Z,92771.41
2022-11-19T01:26:06.827Z,92748.38
2022-11-19T01:27:03.615Z,92771.69
2022-11-19T01:28:00.260Z,92779.88
2022-11-19T01:28:57.353Z,92738.06
2022-11-19T01:29:53.932Z,92782.91
2022-11-19T01:30:50.710Z,92782.47
2022-11-19T01:31:47.380Z,92785.91
2022-11-19T01:32:43.963Z,92794.50
2022-11-19T01:33:41.192Z,92783.50
2022-11-19T01:34:37.749Z,92801.03
2022-11-19T01:35:34.886Z,92766.47
2022-11-19T01:36:31.577Z,92782.91
2022-11-19T01:37:28.148Z,92797.03
2022-11-19T01:38:24.787Z,92794.28
2022-11-19T01:39:21.728Z,92797.78
2022-11-19T01:40:18.559Z,92793.91
2022-11-19T01:41:15.125Z,92790.50
2022-11-19T01:42:46.757Z,92794.94
2022-11-19T01:43:50.589Z,92791.94
2022-11-19T01:45:01.230Z,92793.50
2022-11-19T01:45:57.799Z,92784.53
2022-11-19T01:46:54.369Z,92800.69
2022-11-19T01:47:53.866Z,92801.59
2022-11-19T01:49:02.534Z,92804.47
2022-11-19T01:49:59.849Z,92803.72
2022-11-19T01:51:00.890Z,92807.84
2022-11-19T01:52:01.586Z,92800.19
2022-11-19T01:52:58.584Z,92798.09
2022-11-19T01:53:59.211Z,92776.66
2022-11-19T01:54:56.249Z,92794.69
2022-11-19T01:55:53.629Z,92823.44
2022-11-19T01:56:50.193Z,92802.97
2022-11-19T01:57:56.606Z,92821.19
2022-11-19T01:59:00.153Z,92818.81
2022-11-19T01:59:56.797Z,92823.44
2022-11-19T02:00:53.436Z,92823.91
2022-11-19T02:01:50.158Z,92802.06
2022-11-19T02:02:46.879Z,92819.31
2022-11-19T02:03:43.781Z,92821.16
2022-11-19T02:04:40.887Z,92825.28
2022-11-19T02:05:37.996Z,92818.81
2022-11-19T02:06:35.184Z,92818.66
2022-11-19T02:07:35.225Z,92824.03
2022-11-19T02:08:37.825Z,92827.97
2022-11-19T02:09:36.956Z,92811.63
2022-11-19T02:11:01.973Z,92826.06
2022-11-19T02:12:43.994Z,92826.16
2022-11-19T02:13:51.452Z,92821.78
2022-11-19T02:15:13.746Z,92823.41
2022-11-19T02:16:35.862Z,92818.88
2022-11-19T02:17:56.998Z,92816.69
2022-11-19T02:19:12.756Z,92828.81
2022-11-19T02:20:24.614Z,92823.59
2022-11-19T02:21:30.355Z,92818.69
2022-11-19T02:22:42.183Z,92818.28
2022-11-19T02:23:46.368Z,92813.97
2022-11-19T02:25:05.578Z,92818.06
2022-11-19T02:26:26.430Z,92822.28
2022-11-19T02:27:46.197Z,92796.72
2022-11-19T02:29:15.926Z,92810.94
2022-11-19T02:30:16.702Z,92810.06
2022-11-19T02:31:39.517Z,92808.41
2022-11-19T02:32:46.443Z,92814.88
2022-11-19T02:34:03.209Z,92824.75
2022-11-19T02:35:16.199Z,92807.81
2022-11-19T02:36:21.705Z,92818.47
2022-11-19T02:37:30.413Z,92827.22
2022-11-19T02:38:45.583Z,92824.66
2022-11-19T02:39:53.140Z,92780.78
2022-11-19T02:40:58.887Z,92829.84
2022-11-19T02:42:30.967Z,92837.75
2022-11-19T02:43:40.368Z,92841.88
2022-11-19T02:44:58.837Z,92843.88
2022-11-19T02:46:01.483Z,92846.53
2022-11-19T02:47:00.527Z,92841.41
2022-11-19T02:48:03.098Z,92840.59
2022-11-19T02:49:00.085Z,92847.97
2022-11-19T02:50:03.194Z,92852.09
2022-11-19T02:51:02.725Z,92846.66
2022-11-19T02:52:00.657Z,92847.53
2022-11-19T02:52:58.034Z,92851.28
2022-11-19T02:53:55.251Z,92849.28
2022-11-19T02:54:51.919Z,92850.41
2022-11-19T02:56:06.732Z,92855.53
2022-11-19T02:57:03.740Z,92847.56
2022-11-19T02:58:09.112Z,92861.59
2022-11-19T02:59:24.565Z,92854.34
2022-11-19T03:00:40.879Z,92857.47
2022-11-19T03:02:00.890Z,92860.06
2022-11-19T03:03:32.923Z,92846.09
2022-11-19T03:04:30.819Z,92868.06
2022-11-19T03:05:32.073Z,92860.22
2022-11-19T03:06:29.551Z,92861.84
2022-11-19T03:07:26.190Z,92853.41
2022-11-19T03:08:23.546Z,92871.25
2022-11-19T03:09:21.773Z,92874.81
2022-11-19T03:10:22.942Z,92862.69
2022-11-19T03:11:26.589Z,92877.72
2022-11-19T03:12:39.305Z,92869.72
2022-11-19T03:14:19.878Z,92874.06
2022-11-19T03:15:41.121Z,92877.22
2022-11-19T03:16:57.947Z,92882.16
2022-11-19T03:18:03.036Z,92870.94
2022-11-19T03:19:07.911Z,92830.97
2022-11-19T03:20:34.043Z,92876.84
2022-11-19T03:21:39.264Z,92881.59
2022-11-19T03:23:19.472Z,92877.13
2022-11-19T03:24:27.689Z,92879.75
2022-11-19T03:25:34.980Z,92880.09
2022-11-19T03:26:39.688Z,92877.03
2022-11-19T03:27:43.564Z,92884.66
2022-11-19T03:28:40.819Z,92878.75
2022-11-19T03:29:43.041Z,92861.72
2022-11-19T03:30:43.180Z,92880.66
2022-11-19T03:31:45.652Z,92887.38
2022-11-19T03:32:45.146Z,92884.00
2022-11-19T03:33:45.814Z,92852.38
2022-11-19T03:34:45.952Z,92883.97
2022-11-19T03:35:48.712Z,92844.50
2022-11-19T03:36:47.888Z,92887.19
2022-11-19T03:37:49.855Z,92878.16
2022-11-19T03:38:52.446Z,92886.97
2022-11-19T03:39:52.421Z,92902.81
2022-11-19T03:40:50.605Z,92858.84
2022-11-19T03:41:50.750Z,92905.59
2022-11-19T03:42:51.320Z,92884.53
2022-11-19T03:43:54.187Z,92901.28
2022-11-19T03:44:55.524Z,92863.50
2022-11-19T03:45:54.694Z,92900.38
2022-11-19T03:46:55.788Z,92903.53
2022-11-19T03:47:55.299Z,92903.59
2022-11-19T03:48:55.424Z,92910.84
2022-11-19T03:50:02.880Z,92921.72
2022-11-19T03:51:10.194Z,92875.34
2022-11-19T03:52:19.595Z,92914.19
2022-11-19T03:53:17.824Z,92914.41
2022-11-19T03:54:15.101Z,92909.34
2022-11-19T03:55:11.996Z,92911.28
2022-11-19T03:56:11.996Z,92923.44
2022-11-19T03:57:11.855Z,92911.28
2022-11-19T03:58:10.950Z,92909.91
2022-11-19T03:59:10.349Z,92910.75
2022-11-19T04:00:07.647Z,92912.28
2022-11-19T04:01:04.265Z,92888.19
2022-11-19T04:02:07.666Z,92907.72
2022-11-19T04:03:04.907Z,92920.22
2022-11-19T04:04:19.762Z,92927.44
2022-11-19T04:05:16.509Z,92938.25
2022-11-19T04:06:13.152Z,92917.25
2022-11-19T04:07:14.236Z,92932.28
2022-11-19T04:08:11.482Z,92927.91
2022-11-19T04:09:08.053Z,92908.22
2022-11-19T04:10:05.080Z,92938.25
2022-11-19T04:11:57.093Z,92910.13
2022-11-19T04:12:53.719Z,92936.06
2022-11-19T04:13:50.314Z,92935.78
2022-11-19T04:14:47.743Z,92944.88
2022-11-19T04:15:44.399Z,92937.94
2022-11-19T04:16:41.049Z,92925.66
2022-11-19T04:17:37.845Z,92928.66
2022-11-19T04:18:34.604Z,92939.44
2022-11-19T04:19:31.324Z,92906.50
2022-11-19T04:20:27.974Z,92944.09
2022-11-19T04:21:24.570Z,92937.84
2022-11-19T04:22:21.162Z,92941.84
2022-11-19T04:23:17.793Z,92948.84
2022-11-19T04:24:14.928Z,92943.34
2022-11-19T04:25:11.560Z,92951.88
2022-11-19T04:26:08.176Z,92933.97
2022-11-19T04:27:04.749Z,92946.78
2022-11-19T04:28:01.419Z,92892.16
2022-11-19T04:28:58.044Z,92951.53
2022-11-19T04:29:54.713Z,92955.84
2022-11-19T04:30:51.265Z,92962.50
2022-11-19T04:31:48.010Z,92932.44
2022-11-19T04:32:44.599Z,92966.84
2022-11-19T04:33:41.146Z,92961.25
2022-11-19T04:34:37.688Z,92960.47
2022-11-19T04:35:34.339Z,92964.09
2022-11-19T04:36:31.067Z,92964.69
2022-11-19T04:37:27.645Z,92966.88
2022-11-19T04:38:24.283Z,92965.78
2022-11-19T04:39:21.322Z,92966.44
2022-11-19T04:40:18.219Z,92975.69
2022-11-19T04:41:14.840Z,92973.56
2022-11-19T04:42:11.474Z,92976.94
2022-11-19T04:43:08.085Z,92980.75
2022-11-19T04:44:04.802Z,92986.78
2022-11-19T04:45:01.371Z,92992.78
2022-11-19T04:45:58.030Z,92992.88
2022-11-19T04:46:54.719Z,92983.78
2022-11-19T04:47:51.260Z,92995.88
2022-11-19T04:48:47.981Z,92994.50
2022-11-19T04:49:44.625Z,92996.59
2022-11-19T04:50:42.583Z,92977.47
2022-11-19T04:51:39.305Z,93010.19
2022-11-19T04:52:40.506Z,93010.19
2022-11-19T04:53:37.635Z,93000.22
2022-11-19T04:54:34.315Z,93007.34
2022-11-19T04:55:30.921Z,93005.13
2022-11-19T04:56:27.538Z,92960.03
2022-11-19T04:57:24.103Z,93008.63
2022-11-19T04:58:20.640Z,92970.84
2022-11-19T04:59:17.537Z,93008.13
2022-11-19T05:00:15.127Z,92966.97
2022-11-19T05:01:11.705Z,93007.31
2022-11-19T05:02:08.293Z,93003.16
2022-11-19T05:03:04.925Z,92999.91
2022-11-19T05:04:01.649Z,93018.09
2022-11-19T05:04:58.319Z,93024.31
2022-11-19T05:05:55.063Z,93021.75
2022-11-19T05:06:51.663Z,93019.09
2022-11-19T05:07:48.220Z,92996.84
2022-11-19T05:08:44.881Z,93012.72
2022-11-19T05:09:41.481Z,92972.59
2022-11-19T05:10:38.124Z,93033.50
2022-11-19T05:11:34.765Z,93031.75
2022-11-19T05:12:31.381Z,93040.25
2022-11-19T05:13:28.031Z,93036.16
2022-11-19T05:14:29.926Z,93043.50
2022-11-19T05:15:26.993Z,93043.50
2022-11-19T05:16:23.662Z,93044.34
2022-11-19T05:17:20.278Z,93011.41
2022-11-19T05:18:16.934Z,93044.56
2022-11-19T05:19:13.513Z,93044.50
2022-11-19T05:20:10.329Z,93052.03
2022-11-19T05:21:07.279Z,93047.53
2022-11-19T05:22:03.967Z,93050.31
2022-11-19T05:23:00.696Z,93058.34
2022-11-19T05:23:57.366Z,93060.72
2022-11-19T05:24:54.031Z,93063.13
2022-11-19T05:25:50.630Z,93067.22
2022-11-19T05:26:47.398Z,93056.59
2022-11-19T05:27:43.994Z,93047.28
2022-11-19T05:28:40.604Z,93060.53
2022-11-19T05:29:37.182Z,93065.66
2022-11-19T05:30:33.752Z,93065.81
2022-11-19T05:31:30.493Z,93069.25
2022-11-19T05:32:27.235Z,93062.44
2022-11-19T05:33:23.883Z,93051.38
2022-11-19T05:34:20.554Z,93059.41
2022-11-19T05:35:17.312Z,93071.31
2022-11-19T05:36:13.972Z,93070.97
2022-11-19T05:37:10.531Z,93078.50
2022-11-19T05:38:08.484Z,93046.59
2022-11-19T05:39:05.082Z,93052.13
2022-11-19T05:40:01.914Z,93065.09
2022-11-19T05:40:58.580Z,93076.25
2022-11-19T05:41:55.159Z,93087.13
2022-11-19T05:42:51.781Z,93088.25
2022-11-19T05:43:48.447Z,93081.22
2022-11-19T05:44:45.073Z,93072.50
2022-11-19T05:45:41.673Z,93091.38
2022-11-19T05:46:38.288Z,93089.84
2022-11-19T05:47:35.001Z,93080.50
2022-11-19T05:48:31.599Z,93090.75
2022-11-19T05:49:28.148Z,93096.72
2022-11-19T05:50:24.897Z,93094.38
2022-11-19T05:51:21.578Z,93083.75
2022-11-19T05:52:18.257Z,93062.38
2022-11-19T05:53:14.865Z,93099.72
2022-11-19T05:54:11.482Z,93097.34
2022-11-19T05:55:08.145Z,93092.53
2022-11-19T05:56:04.885Z,93095.78
2022-11-19T05:57:01.601Z,93107.25
2022-11-19T05:57:58.444Z,93104.72
2022-11-19T05:58:55.042Z,93101.00
2022-11-19T05:59:51.734Z,93099.66
2022-11-19T06:00:48.573Z,93113.63
2022-11-19T06:01:45.213Z,93119.66
2022-11-19T06:02:41.892Z,93118.28
2022-11-19T06:03:38.586Z,93127.72
2022-11-19T06:04:36.249Z,93130.78
2022-11-19T06:05:37.261Z,93127.88
2022-11-19T06:06:36.755Z,93123.25
2022-11-19T06:07:33.458Z,93134.38
2022-11-19T06:08:30.106Z,93143.34
2022-11-19T06:09:26.712Z,93147.03
2022-11-19T06:10:23.451Z,93147.91
2022-11-19T06:11:38.783Z,93146.59
2022-11-19T06:12:35.595Z,93149.88
2022-11-19T06:13:32.247Z,93158.09
2022-11-19T06:14:28.894Z,93153.25
2022-11-19T06:15:25.455Z,93155.66
2022-11-19T06:16:22.082Z,93151.09
2022-11-19T06:17:18.673Z,93159.78
2022-11-19T06:18:15.379Z,93153.81
2022-11-19T06:19:12.180Z,93136.31
2022-11-19T06:20:11.221Z,93146.84
2022-11-19T06:21:11.992Z,93154.53
2022-11-19T06:22:09.936Z,93120.53
2022-11-19T06:23:06.551Z,93136.03
2022-11-19T06:24:03.295Z,93168.59
2022-11-19T06:24:59.909Z,93163.53
2022-11-19T06:25:57.285Z,93143.47
2022-11-19T06:26:53.956Z,93171.41
2022-11-19T06:27:50.529Z,93183.28
2022-11-19T06:28:47.129Z,93136.75
2022-11-19T06:29:43.912Z,93099.72
2022-11-19T06:30:40.606Z,93185.16
2022-11-19T06:31:37.198Z,93181.91
2022-11-19T06:32:34.079Z,93181.25
2022-11-19T06:33:30.651Z,93180.66
2022-11-19T06:34:27.250Z,93180.59
2022-11-19T06:35:23.914Z,93178.13
2022-11-19T06:36:21.209Z,93181.97
2022-11-19T06:37:17.889Z,93181.25
2022-11-19T06:38:14.468Z,93180.84
2022-11-19T06:39:11.039Z,93181.38
2022-11-19T06:40:08.281Z,93161.59
2022-11-19T06:41:05.202Z,93180.75
2022-11-19T06:42:21.851Z,93179.69
2022-11-19T06:43:18.419Z,93184.06
2022-11-19T06:44:15.036Z,93179.28
2022-11-19T06:45:14.448Z,93184.66
2022-11-19T06:46:12.995Z,93184.91
2022-11-19T06:47:09.601Z,93188.94
2022-11-19T06:48:06.285Z,93162.44
2022-11-19T06:49:03.834Z,93197.81
2022-11-19T06:50:00.445Z,93191.63
2022-11-19T06:50:57.514Z,93194.31
2022-11-19T06:51:54.197Z,93191.25
2022-11-19T06:52:50.849Z,93191.63
2022-11-19T06:53:47.493Z,93183.66
2022-11-19T06:54:44.114Z,93188.00
2022-11-19T06:55:40.744Z,93198.94
2022-11-19T06:56:37.345Z,93207.59
2022-11-19T06:57:33.983Z,93211.81
2022-11-19T06:58:31.181Z,93214.28
2022-11-19T06:59:29.262Z,93178.22
2022-11-19T07:00:25.818Z,93207.59
2022-11-19T07:01:22.510Z,93199.31
2022-11-19T07:02:21.574Z,93210.22
2022-11-19T07:03:18.979Z,93217.47
2022-11-19T07:04:15.612Z,93214.59
2022-11-19T07:05:12.150Z,93216.53
2022-11-19T07:06:08.984Z,93199.31
2022-11-19T07:07:06.332Z,93214.59
2022-11-19T07:08:03.544Z,93216.91
2022-11-19T07:09:00.210Z,93219.28
2022-11-19T07:09:56.806Z,93216.19
2022-11-19T07:10:54.094Z,93211.75
2022-11-19T07:11:50.674Z,93198.69
2022-11-19T07:12:47.397Z,93228.88
2022-11-19T07:13:59.767Z,93212.94
2022-11-19T07:15:02.670Z,93220.25
2022-11-19T07:16:02.997Z,93179.34
2022-11-19T07:16:59.741Z,93218.09
2022-11-19T07:17:56.336Z,93216.06
2022-11-19T07:18:53.201Z,93218.94
2022-11-19T07:19:49.838Z,93215.41
2022-11-19T07:20:46.905Z,93214.59
2022-11-19T07:21:43.591Z,93199.50
2022-11-19T07:22:41.563Z,93217.50
2022-11-19T07:23:38.146Z,93217.13
2022-11-19T07:24:35.001Z,93223.59
2022-11-19T07:25:31.622Z,93221.81
2022-11-19T07:26:28.294Z,93195.19
2022-11-19T07:27:24.912Z,93137.72
2022-11-19T07:28:21.476Z,93215.69
2022-11-19T07:29:18.811Z,93191.03
2022-11-19T07:30:16.025Z,93217.94
2022-11-19T07:31:12.794Z,93146.47
2022-11-19T07:32:09.368Z,93210.63
2022-11-19T07:33:05.980Z,93176.72
2022-11-19T07:34:06.496Z,93218.34
2022-11-19T07:35:03.345Z,93177.88
2022-11-19T07:35:59.910Z,93223.13
2022-11-19T07:36:56.504Z,93216.94
2022-11-19T07:37:53.148Z,93223.53
2022-11-19T07:38:52.293Z,93190.03
2022-11-19T07:39:49.053Z,93218.25
2022-11-19T07:40:53.672Z,93222.38
2022-11-19T07:42:08.925Z,93226.97
2022-11-19T07:43:05.465Z,93228.50
2022-11-19T07:44:02.070Z,93230.19
2022-11-19T07:44:58.707Z,93202.38
2022-11-19T07:45:55.325Z,93233.59
2022-11-19T07:46:51.996Z,93229.28
2022-11-19T07:47:49.384Z,93228.53
2022-11-19T07:48:46.187Z,93207.03
2022-11-19T07:49:42.797Z,93203.16
2022-11-19T07:50:41.050Z,93222.09
2022-11-19T07:51:37.664Z,93223.13
2022-11-19T07:52:34.314Z,93226.56
2022-11-19T07:53:30.884Z,93225.22
2022-11-19T07:54:27.549Z,93185.50
2022-11-19T07:55:24.155Z,93204.69
2022-11-19T07:56:21.084Z,93229.81
2022-11-19T07:57:17.662Z,93233.97
2022-11-19T07:58:14.717Z,93221.94
2022-11-19T07:59:12.155Z,93222.72
2022-11-19T08:00:09.631Z,93236.19
2022-11-19T08:01:20.505Z,93241.34
2022-11-19T08:02:17.198Z,93213.91
2022-11-19T08:03:13.748Z,93243.91
2022-11-19T08:04:10.702Z,93235.19
2022-11-19T08:05:07.540Z,93246.16
2022-11-19T08:06:05.911Z,93233.75
2022-11-19T08:07:02.534Z,93247.38
2022-11-19T08:07:59.130Z,93242.81
2022-11-19T08:08:56.420Z,93247.56
2022-11-19T08:09:53.034Z,93246.59
2022-11-19T08:10:49.617Z,93258.88
2022-11-19T08:11:46.183Z,93260.94
2022-11-19T08:13:02.753Z,93232.97
2022-11-19T08:14:02.718Z,93261.56
2022-11-19T08:14:59.371Z,93263.81
2022-11-19T08:16:03.675Z,93264.19
2022-11-19T08:17:18.882Z,93253.34
2022-11-19T08:18:16.237Z,93266.13
2022-11-19T08:19:15.148Z,93271.25
2022-11-19T08:20:12.001Z,93272.06
2022-11-19T08:21:11.211Z,93259.84
2022-11-19T08:22:11.132Z,93240.56
2022-11-19T08:23:07.984Z,93271.06
2022-11-19T08:24:07.064Z,93274.88
2022-11-19T08:25:04.215Z,93271.84
2022-11-19T08:26:01.196Z,93270.25
2022-11-19T08:26:57.830Z,93273.31
2022-11-19T08:27:54.429Z,93276.38
2022-11-19T08:28:51.088Z,93268.16
2022-11-19T08:29:47.704Z,93280.78
2022-11-19T08:30:45.547Z,93273.72
2022-11-19T08:31:43.511Z,93269.81
2022-11-19T08:32:40.223Z,93281.69
2022-11-19T08:33:36.852Z,93276.38
2022-11-19T08:34:34.361Z,93279.41
2022-11-19T08:35:30.983Z,93271.41
2022-11-19T08:36:27.813Z,93243.63
2022-11-19T08:37:24.453Z,93279.41
2022-11-19T08:38:21.113Z,93277.63
2022-11-19T08:39:17.746Z,93272.41
2022-11-19T08:40:15.224Z,93272.28
2022-11-19T08:41:30.087Z,93272.94
2022-11-19T08:42:45.270Z,93266.63
2022-11-19T08:43:42.350Z,93244.19
2022-11-19T08:44:39.159Z,93269.34
2022-11-19T08:45:39.447Z,93275.59
2022-11-19T08:46:37.355Z,93241.44
2022-11-19T08:47:33.985Z,93269.19
2022-11-19T08:48:30.540Z,93263.56
2022-11-19T08:49:27.304Z,93261.38
2022-11-19T08:50:24.905Z,93259.53
2022-11-19T08:51:21.613Z,93270.78
2022-11-19T08:52:18.277Z,93257.16
2022-11-19T08:53:14.984Z,93270.44
2022-11-19T08:54:13.183Z,93259.81
2022-11-19T08:55:10.369Z,93256.09
2022-11-19T08:56:07.609Z,93267.47
2022-11-19T08:57:04.755Z,93242.28
2022-11-19T08:58:05.411Z,93272.84
2022-11-19T08:59:03.222Z,93246.47
2022-11-19T09:00:05.665Z,93274.56
2022-11-19T09:01:10.842Z,93274.56
2022-11-19T09:02:10.649Z,93260.53
2022-11-19T09:03:07.365Z,93283.59
2022-11-19T09:04:04.444Z,93274.75
2022-11-19T09:05:01.290Z,93280.47
2022-11-19T09:06:01.225Z,93288.22
2022-11-19T09:06:58.051Z,93277.53
2022-11-19T09:07:55.366Z,93291.06
2022-11-19T09:08:51.994Z,93297.84
2022-11-19T09:09:48.553Z,93291.63
2022-11-19T09:10:45.145Z,93300.13
2022-11-19T09:11:43.055Z,93306.34
2022-11-19T09:12:39.811Z,93306.00
2022-11-19T09:13:36.413Z,93306.53
2022-11-19T09:14:33.234Z,93308.53
2022-11-19T09:15:29.828Z,93293.31
2022-11-19T09:16:26.730Z,93301.41
2022-11-19T09:17:24.239Z,93302.56
2022-11-19T09:18:20.889Z,93304.53
2022-11-19T09:19:17.540Z,93288.03
2022-11-19T09:20:14.320Z,93305.69
2022-11-19T09:21:12.079Z,93303.75
2022-11-19T09:22:08.678Z,93306.44
2022-11-19T09:23:05.285Z,93306.13
2022-11-19T09:24:01.850Z,93299.97
2022-11-19T09:24:58.428Z,93294.59
2022-11-19T09:26:16.050Z,93293.84
2022-11-19T09:27:12.748Z,93255.06
2022-11-19T09:28:11.280Z,93268.53
2022-11-19T09:29:07.956Z,93277.31
2022-11-19T09:30:06.346Z,93275.38
2022-11-19T09:31:06.963Z,93283.03
2022-11-19T09:32:03.888Z,93275.41
2022-11-19T09:33:00.491Z,93281.91
2022-11-19T09:33:57.050Z,93276.13
2022-11-19T09:34:53.626Z,93260.81
2022-11-19T09:35:50.248Z,93285.78
2022-11-19T09:36:46.888Z,93288.06
2022-11-19T09:37:43.454Z,93279.25
2022-11-19T09:38:40.939Z,93284.25
2022-11-19T09:39:37.734Z,93233.19
2022-11-19T09:40:34.872Z,93280.81
2022-11-19T09:41:47.543Z,93267.00
2022-11-19T09:43:13.924Z,93283.88
2022-11-19T09:44:36.283Z,93291.19
2022-11-19T09:45:56.158Z,93279.25
2022-11-19T09:47:30.540Z,93270.44
2022-11-19T09:48:37.484Z,93263.53
2022-11-19T09:49:53.245Z,93262.38
2022-11-19T09:51:00.413Z,93256.59
2022-11-19T09:52:05.463Z,93222.41
2022-11-19T09:53:15.373Z,93245.06
2022-11-19T09:54:18.971Z,93248.59
2022-11-19T09:55:26.677Z,93245.84
2022-11-19T09:56:30.254Z,93242.81
2022-11-19T09:57:42.067Z,93243.56
2022-11-19T09:58:42.597Z,93210.59
2022-11-19T09:59:40.588Z,93233.22
2022-11-19T10:00:37.283Z,93231.59
2022-11-19T10:01:35.418Z,93206.31
2022-11-19T10:02:32.169Z,93222.34
2022-11-19T10:03:33.450Z,93219.69
2022-11-19T10:04:33.564Z,93230.88
2022-11-19T10:05:59.345Z,93198.28
2022-11-19T10:07:31.151Z,93196.34
2022-11-19T10:08:54.719Z,93202.88
2022-11-19T10:10:22.370Z,93224.00
2022-11-19T10:11:53.368Z,93219.00
2022-11-19T10:13:11.731Z,93222.44
2022-11-19T10:14:27.260Z,93219.38
2022-11-19T10:15:37.946Z,93219.38
2022-11-19T10:16:53.101Z,93239.28
2022-11-19T10:18:00.591Z,93193.63
2022-11-19T10:19:06.206Z,93228.97
2022-11-19T10:20:08.807Z,93214.38
2022-11-19T10:21:43.035Z,93220.88
2022-11-19T10:22:44.445Z,93214.75
2022-11-19T10:23:56.046Z,93210.16
2022-11-19T10:25:11.322Z,93211.72
2022-11-19T10:26:16.456Z,93199.41
2022-11-19T10:27:23.729Z,93215.91
2022-11-19T10:28:23.205Z,93230.50
2022-11-19T10:29:23.489Z,93225.13
2022-11-19T10:30:23.781Z,93226.31
2022-11-19T10:32:20.123Z,93220.94
2022-11-19T10:33:43.630Z,93229.38
2022-11-19T10:34:40.640Z,93228.59
2022-11-19T10:35:41.994Z,93222.06
2022-11-19T10:36:42.111Z,93222.44
2022-11-19T10:37:44.756Z,93222.06
2022-11-19T10:38:51.378Z,93212.81
2022-11-19T10:39:51.691Z,93215.03
2022-11-19T10:40:57.661Z,93179.78
2022-11-19T10:41:59.757Z,93212.81
2022-11-19T10:43:10.414Z,93213.13
2022-11-19T10:44:37.501Z,93219.34
2022-11-19T10:45:34.167Z,93200.47
2022-11-19T10:46:30.761Z,93209.13
2022-11-19T10:47:58.191Z,93207.94
2022-11-19T10:48:58.112Z,93209.69
2022-11-19T10:49:55.528Z,93208.94
2022-11-19T10:50:52.424Z,93198.78
2022-11-19T10:51:49.031Z,93206.03
2022-11-19T10:52:52.739Z,93204.88
2022-11-19T10:53:51.218Z,93199.16
2022-11-19T10:54:50.851Z,93170.09
2022-11-19T10:55:54.498Z,93208.84
2022-11-19T10:56:53.510Z,93208.31
2022-11-19T10:57:59.881Z,93206.19
2022-11-19T10:59:01.412Z,93169.50
2022-11-19T10:59:58.613Z,93210.97
2022-11-19T11:00:58.587Z,93204.38
2022-11-19T11:02:03.929Z,93208.97
2022-11-19T11:03:04.815Z,93214.75
2022-11-19T11:04:13.833Z,93199.75
2022-11-19T11:05:17.333Z,93210.34
2022-11-19T11:06:13.943Z,93210.72
2022-11-19T11:07:10.964Z,93213.75
2022-11-19T11:08:11.418Z,93206.56
2022-11-19T11:09:13.737Z,93204.53
2022-11-19T11:10:28.890Z,93204.72
2022-11-19T11:11:48.030Z,93204.88
2022-11-19T11:13:03.070Z,93208.19
2022-11-19T11:14:18.478Z,93183.75
2022-11-19T11:15:18.917Z,93197.09
2022-11-19T11:16:39.266Z,93191.22
2022-11-19T11:17:38.559Z,93194.72
2022-11-19T11:18:36.474Z,93195.94
2022-11-19T11:19:33.802Z,93156.94
2022-11-19T11:20:31.445Z,93132.47
2022-11-19T11:21:42.966Z,93195.94
2022-11-19T11:22:39.905Z,93186.63
2022-11-19T11:23:48.535Z,93189.28
2022-11-19T11:24:45.143Z,93184.34
2022-11-19T11:25:59.323Z,93151.81
2022-11-19T11:27:24.538Z,93174.47
2022-11-19T11:28:23.135Z,93163.72
2022-11-19T11:29:19.876Z,93175.41
2022-11-19T11:30:18.168Z,93163.81
2022-11-19T11:31:29.847Z,93178.06
2022-11-19T11:32:30.608Z,93174.22
2022-11-19T11:33:42.826Z,93170.59
2022-11-19T11:34:44.229Z,93179.97
2022-11-19T11:35:46.793Z,93169.09
2022-11-19T11:36:45.030Z,93178.03
2022-11-19T11:37:41.858Z,93170.28
2022-11-19T11:38:46.863Z,93171.84
2022-11-19T11:39:44.460Z,93165.72
2022-11-19T11:40:41.354Z,93162.69
2022-11-19T11:43:00.125Z,93149.44
2022-11-19T11:44:02.640Z,93167.09
2022-11-19T11:45:00.052Z,93168.78
2022-11-19T11:46:02.987Z,93125.94
2022-11-19T11:47:10.558Z,93162.81
2022-11-19T11:48:16.206Z,93159.97
2022-11-19T11:49:39.064Z,93166.22
2022-11-19T11:50:37.293Z,93163.66
2022-11-19T11:51:36.895Z,93174.09
2022-11-19T11:52:47.073Z,93165.16
2022-11-19T11:53:43.651Z,93182.75
2022-11-19T11:55:04.750Z,93167.94
2022-11-19T11:56:02.706Z,93136.59
2022-11-19T11:57:18.190Z,93163.69